Time;durP1;ratioP1;P1;durP2;ratioP2;P2;SDS_P1;SDS_P2;PMS_P1;PMS_P2;Temp;Humidity;BMP_temperature;BMP_pressure;BME280_temperature;BME280_humidity;BME280_pressure;Samples;Min_cycle;Max_cycle;Signal;HPM_P1;HPM_P2
2022/11/25 00:01:33;;;;;;;;;;;22.40;99.90;;;;;;5113587;28;19920;-66
2022/11/25 00:04:00;;;;;;;;;;;22.30;99.90;;;;;;5113617;28;19996;-62
2022/11/25 00:06:27;;;;;;;;;;;22.20;99.90;;;;;;5113623;28;19908;-67
2022/11/25 00:08:55;;;;;;;;;;;22.20;99.90;;;;;;5113233;28;20066;-65
2022/11/25 00:11:22;;;;;;;;;;;22.30;99.90;;;;;;5113322;28;19930;-66
2022/11/25 00:13:49;;;;;;;;;;;22.50;99.90;;;;;;5113613;28;19915;-68
2022/11/25 00:16:17;;;;;;;;;;;22.70;99.90;;;;;;5113601;28;19934;-67
2022/11/25 00:18:44;;;;;;;;;;;22.80;99.90;;;;;;5113492;28;19912;-64
2022/11/25 00:21:12;;;;;;;;;;;22.80;99.90;;;;;;5113286;28;19920;-67
2022/11/25 00:23:39;;;;;;;;;;;22.80;99.90;;;;;;5095193;28;19908;-68
2022/11/25 00:26:15;;;;;;;;;;;22.80;99.90;;;;;;5113410;28;19961;-65
2022/11/25 00:28:44;;;;;;;;;;;22.80;99.90;;;;;;5113494;28;19915;-67
2022/11/25 00:31:12;;;;;;;;;;;22.80;99.90;;;;;;5095183;28;20362;-69
2022/11/25 00:33:39;;;;;;;;;;;22.90;99.90;;;;;;5113482;28;19912;-62
2022/11/25 00:36:08;;;;;;;;;;;22.90;99.90;;;;;;5113174;28;19930;-67
2022/11/25 00:38:35;;;;;;;;;;;23.10;99.90;;;;;;5113185;28;19908;-69
2022/11/25 00:46:31;;;;;;;;;;;23.60;99.90;;;;;;5113642;28;19980;-67
2022/11/25 00:48:58;;;;;;;;;;;24.10;99.90;;;;;;5113185;28;19915;-65
2022/11/25 00:51:24;;;;;;;;;;;24.60;99.90;;;;;;5113066;28;19953;-65
2022/11/25 00:53:51;;;;;;;;;;;25.30;99.90;;;;;;5113044;28;19912;-67
2022/11/25 00:56:18;;;;;;;;;;;26.00;99.90;;;;;;5112711;28;19927;-61
2022/11/25 00:58:45;;;;;;;;;;;26.30;99.90;;;;;;5114947;28;19953;-61
2022/11/25 01:01:11;;;;;;;;;;;26.30;99.90;;;;;;5116571;28;19930;-71
2022/11/25 01:03:38;;;;;;;;;;;26.10;99.90;;;;;;5116854;28;19908;-61
2022/11/25 01:06:06;;;;;;;;;;;25.60;99.90;;;;;;5116557;28;19907;-61
2022/11/25 01:08:33;;;;;;;;;;;25.70;99.90;;;;;;5116529;28;19908;-62
2022/11/25 01:11:04;;;;;;;;;;;26.10;99.90;;;;;;5116253;28;20514;-61
2022/11/25 01:13:32;;;;;;;;;;;26.50;99.90;;;;;;5116519;28;19931;-61
2022/11/25 01:16:02;;;;;;;;;;;26.90;99.90;;;;;;5116420;28;19914;-61
2022/11/25 01:18:29;;;;;;;;;;;27.20;99.90;;;;;;5116597;28;20026;-61
2022/11/25 01:21:04;;;;;;;;;;;27.30;99.90;;;;;;5116210;28;20381;-61
2022/11/25 01:23:31;;;;;;;;;;;27.30;99.90;;;;;;5116353;28;19935;-61
2022/11/25 01:26:00;;;;;;;;;;;27.00;99.90;;;;;;5116109;28;19915;-62
2022/11/25 01:28:27;;;;;;;;;;;27.00;99.90;;;;;;5116273;28;19908;-62
2022/11/25 01:31:03;;;;;;;;;;;26.80;99.90;;;;;;5115972;28;19915;-61
2022/11/25 01:33:33;;;;;;;;;;;26.50;99.90;;;;;;5116151;28;19958;-62
2022/11/25 01:36:02;;;;;;;;;;;25.70;99.90;;;;;;5116090;28;19915;-61
2022/11/25 01:38:29;;;;;;;;;;;25.10;99.90;;;;;;5115998;28;19953;-63
2022/11/25 01:40:56;;;;;;;;;;;24.70;99.90;;;;;;5115625;28;20351;-61
2022/11/25 01:43:23;;;;;;;;;;;24.40;99.90;;;;;;5116091;28;19953;-63
2022/11/25 01:45:49;;;;;;;;;;;24.20;99.90;;;;;;5115840;28;19953;-61
2022/11/25 01:48:21;;;;;;;;;;;24.10;99.90;;;;;;5115945;28;19908;-61
2022/11/25 01:50:49;;;;;;;;;;;24.00;99.90;;;;;;5115596;28;20320;-62
2022/11/25 01:53:16;;;;;;;;;;;24.00;99.90;;;;;;5115944;28;19911;-62
2022/11/25 01:55:46;;;;;;;;;;;24.30;99.90;;;;;;5115334;28;19927;-62
2022/11/25 01:58:15;;;;;;;;;;;24.30;99.90;;;;;;5115837;28;19908;-61
2022/11/25 02:00:49;;;;;;;;;;;24.20;99.90;;;;;;5115486;28;20323;-61
2022/11/25 02:03:28;;;;;;;;;;;24.30;99.90;;;;;;5115672;28;19916;-61
2022/11/25 02:06:08;;;;;;;;;;;24.00;99.90;;;;;;5115375;28;19931;-61
2022/11/25 02:08:35;;;;;;;;;;;23.90;99.90;;;;;;5115367;28;19942;-62
2022/11/25 02:11:05;;;;;;;;;;;24.00;99.90;;;;;;5114057;28;19908;-62
2022/11/25 02:13:33;;;;;;;;;;;24.00;99.90;;;;;;5115439;28;20329;-60
2022/11/25 02:15:59;;;;;;;;;;;24.00;99.90;;;;;;5115239;28;20373;-61
2022/11/25 02:18:26;;;;;;;;;;;24.00;99.90;;;;;;5115444;28;20000;-62
2022/11/25 02:20:53;;;;;;;;;;;24.00;99.90;;;;;;5115141;28;19916;-61
2022/11/25 02:23:38;;;;;;;;;;;23.90;99.90;;;;;;5115215;28;19908;-61
2022/11/25 02:26:05;;;;;;;;;;;23.90;99.90;;;;;;5115113;28;19976;-61
2022/11/25 02:28:32;;;;;;;;;;;23.80;99.90;;;;;;5114995;28;19908;-62
2022/11/25 02:30:59;;;;;;;;;;;23.80;99.90;;;;;;5114676;28;20002;-62
2022/11/25 02:33:26;;;;;;;;;;;23.70;99.90;;;;;;5114904;28;19908;-71
2022/11/25 02:36:01;;;;;;;;;;;23.90;99.90;;;;;;5114994;28;19915;-71
2022/11/25 02:38:36;;;;;;;;;;;23.90;99.90;;;;;;5114910;28;20324;-71
2022/11/25 02:41:12;;;;;;;;;;;23.90;99.90;;;;;;5114334;28;19923;-69
2022/11/25 02:43:40;;;;;;;;;;;23.70;99.90;;;;;;5114712;28;19986;-67
2022/11/25 02:46:08;;;;;;;;;;;23.50;99.90;;;;;;5114672;28;20007;-68
2022/11/25 02:48:36;;;;;;;;;;;23.40;99.90;;;;;;5114529;28;20282;-70
2022/11/25 02:51:03;;;;;;;;;;;23.50;99.90;;;;;;5114356;28;20312;-67
2022/11/25 02:53:30;;;;;;;;;;;23.70;99.90;;;;;;5114458;28;20370;-71
2022/11/25 02:55:57;;;;;;;;;;;23.50;99.90;;;;;;5114275;28;19942;-61
2022/11/25 02:58:24;;;;;;;;;;;23.30;99.90;;;;;;5114417;28;19965;-61
2022/11/25 03:00:50;;;;;;;;;;;23.30;99.90;;;;;;5114284;28;20394;-61
2022/11/25 03:03:17;;;;;;;;;;;23.00;99.90;;;;;;5114416;28;19912;-61
2022/11/25 03:05:44;;;;;;;;;;;23.00;99.90;;;;;;5114373;28;20373;-62
2022/11/25 03:08:11;;;;;;;;;;;22.90;99.90;;;;;;5114238;28;19950;-62
2022/11/25 03:10:38;;;;;;;;;;;23.00;99.90;;;;;;5114165;28;20269;-61
2022/11/25 03:13:05;;;;;;;;;;;23.00;99.90;;;;;;5114012;28;20636;-61
2022/11/25 03:15:32;;;;;;;;;;;22.90;99.90;;;;;;5113971;28;19908;-61
2022/11/25 03:17:59;;;;;;;;;;;22.80;99.90;;;;;;5114047;28;20385;-62
2022/11/25 03:20:25;;;;;;;;;;;22.80;99.90;;;;;;5113782;28;19960;-63
2022/11/25 03:22:52;;;;;;;;;;;22.90;99.90;;;;;;5113795;28;19934;-70
2022/11/25 03:25:19;;;;;;;;;;;23.20;99.90;;;;;;5114047;28;19912;-71
2022/11/25 03:27:46;;;;;;;;;;;23.30;99.90;;;;;;5113497;28;20041;-71
2022/11/25 03:30:18;;;;;;;;;;;23.20;99.90;;;;;;5113804;28;20288;-69
2022/11/25 03:32:44;;;;;;;;;;;23.20;99.90;;;;;;5114055;28;19912;-71
2022/11/25 03:35:11;;;;;;;;;;;23.30;99.90;;;;;;5113755;28;20002;-71
2022/11/25 03:37:38;;;;;;;;;;;23.00;99.90;;;;;;5113891;28;19908;-71
2022/11/25 03:40:09;;;;;;;;;;;22.90;99.90;;;;;;5113714;28;19908;-65
2022/11/25 03:42:36;;;;;;;;;;;22.80;99.90;;;;;;5113828;28;20004;-67
2022/11/25 03:45:03;;;;;;;;;;;22.60;99.90;;;;;;5113532;28;19915;-71
2022/11/25 03:47:29;;;;;;;;;;;22.60;99.90;;;;;;5114000;28;19941;-67
2022/11/25 03:49:56;;;;;;;;;;;22.50;99.90;;;;;;5113603;28;19912;-69
2022/11/25 03:52:23;;;;;;;;;;;22.70;99.90;;;;;;5113547;28;19976;-71
2022/11/25 03:54:50;;;;;;;;;;;22.70;99.90;;;;;;5112998;28;19908;-70
2022/11/25 03:57:17;;;;;;;;;;;22.70;99.90;;;;;;5113332;28;19920;-70
2022/11/25 03:59:43;;;;;;;;;;;22.60;99.90;;;;;;5113561;28;19915;-70
2022/11/25 04:02:10;;;;;;;;;;;22.60;99.90;;;;;;5113418;28;19968;-68
2022/11/25 04:04:37;;;;;;;;;;;22.60;99.90;;;;;;5113496;28;19915;-70
2022/11/25 04:07:03;;;;;;;;;;;22.60;99.90;;;;;;5113440;28;19931;-70
2022/11/25 04:09:30;;;;;;;;;;;22.60;99.90;;;;;;5113340;28;19939;-70
2022/11/25 04:14:41;;;;;;;;;;;22.30;99.90;;;;;;5113885;28;20265;-61
2022/11/25 04:17:08;;;;;;;;;;;22.30;99.90;;;;;;5112800;28;19908;-60
2022/11/25 04:19:35;;;;;;;;;;;22.30;99.90;;;;;;5113426;28;19908;-60
2022/11/25 04:22:02;;;;;;;;;;;22.20;99.90;;;;;;5113430;28;19930;-60
2022/11/25 04:24:28;;;;;;;;;;;22.40;99.90;;;;;;5113310;28;19982;-61
2022/11/25 04:26:55;;;;;;;;;;;22.50;99.90;;;;;;5113187;28;20284;-60
2022/11/25 04:29:22;;;;;;;;;;;22.50;99.90;;;;;;5113249;28;19915;-61
2022/11/25 04:31:49;;;;;;;;;;;22.50;99.90;;;;;;5113419;28;19943;-60
2022/11/25 04:34:15;;;;;;;;;;;22.50;99.90;;;;;;5116263;28;19908;-60
2022/11/25 04:36:42;;;;;;;;;;;22.40;99.90;;;;;;5117343;28;20274;-60
2022/11/25 04:39:09;;;;;;;;;;;22.60;99.90;;;;;;5116979;28;19908;-61
2022/11/25 04:41:35;;;;;;;;;;;22.60;99.90;;;;;;5116962;28;19916;-60
2022/11/25 04:44:02;;;;;;;;;;;22.60;99.90;;;;;;5117164;28;19908;-70
2022/11/25 04:46:39;;;;;;;;;;;22.50;99.90;;;;;;5117055;28;19977;-70
2022/11/25 04:49:06;;;;;;;;;;;22.70;99.90;;;;;;5116770;28;19998;-70
2022/11/25 04:51:34;;;;;;;;;;;22.70;99.90;;;;;;5117000;28;19923;-69
2022/11/25 04:54:01;;;;;;;;;;;22.60;99.90;;;;;;5116731;28;19912;-70
2022/11/25 04:56:27;;;;;;;;;;;22.40;99.90;;;;;;5116612;28;20419;-68
2022/11/25 05:01:39;;;;;;;;;;;22.20;99.90;;;;;;5116898;28;19923;-70
2022/11/25 05:04:06;;;;;;;;;;;22.40;99.90;;;;;;5116590;28;19915;-69
2022/11/25 05:06:32;;;;;;;;;;;22.30;99.90;;;;;;5116734;28;19907;-69
2022/11/25 05:08:59;;;;;;;;;;;22.40;99.90;;;;;;5116223;28;19999;-70
2022/11/25 05:11:26;;;;;;;;;;;22.50;99.90;;;;;;5116652;28;20269;-64
2022/11/25 05:13:52;;;;;;;;;;;22.50;99.90;;;;;;5116594;28;19908;-66
2022/11/25 05:16:19;;;;;;;;;;;22.40;99.90;;;;;;5116720;28;19907;-65
2022/11/25 05:18:46;;;;;;;;;;;22.40;99.90;;;;;;5116247;28;19908;-69
2022/11/25 05:21:12;;;;;;;;;;;22.50;99.90;;;;;;5116344;28;19922;-68
2022/11/25 05:23:39;;;;;;;;;;;22.60;99.90;;;;;;5115942;28;19908;-67
2022/11/25 05:26:06;;;;;;;;;;;22.40;99.90;;;;;;5116198;28;19990;-66
2022/11/25 05:28:33;;;;;;;;;;;22.20;99.90;;;;;;5116184;28;19915;-69
2022/11/25 05:30:59;;;;;;;;;;;22.30;99.90;;;;;;5115886;28;20385;-63
2022/11/25 05:33:26;;;;;;;;;;;22.40;99.90;;;;;;5116229;28;19908;-63
2022/11/25 05:36:03;;;;;;;;;;;22.30;99.90;;;;;;5116047;28;20362;-61
2022/11/25 05:38:30;;;;;;;;;;;22.40;99.90;;;;;;5116086;28;19907;-64
2022/11/25 05:41:01;;;;;;;;;;;22.40;99.90;;;;;;5115762;28;19999;-64
2022/11/25 05:43:28;;;;;;;;;;;22.40;99.90;;;;;;5115915;28;19908;-66
2022/11/25 05:45:54;;;;;;;;;;;22.40;99.90;;;;;;5115954;28;19908;-66
2022/11/25 05:48:21;;;;;;;;;;;22.40;99.90;;;;;;5115885;28;19911;-62
2022/11/25 05:50:48;;;;;;;;;;;22.60;99.90;;;;;;5114557;28;20366;-66
2022/11/25 05:53:16;;;;;;;;;;;22.50;99.90;;;;;;5113561;28;19976;-63
2022/11/25 05:55:43;;;;;;;;;;;22.40;99.90;;;;;;5113536;28;20393;-61
2022/11/25 05:58:09;;;;;;;;;;;22.40;99.90;;;;;;5113545;28;19912;-62
2022/11/25 06:00:36;;;;;;;;;;;22.30;99.90;;;;;;5113513;28;19947;-64
2022/11/25 06:03:03;;;;;;;;;;;22.20;99.90;;;;;;5113344;28;19998;-65
2022/11/25 06:05:30;;;;;;;;;;;22.20;99.90;;;;;;5112941;28;19912;-63
2022/11/25 06:07:56;;;;;;;;;;;22.40;99.90;;;;;;5113403;28;19908;-62
2022/11/25 06:10:23;;;;;;;;;;;22.30;99.90;;;;;;5113250;28;19914;-63
2022/11/25 06:12:52;;;;;;;;;;;22.30;99.90;;;;;;5112862;28;19907;-63
2022/11/25 06:15:18;;;;;;;;;;;22.30;99.90;;;;;;5113273;28;20263;-63
2022/11/25 06:17:45;;;;;;;;;;;22.20;99.90;;;;;;5112716;28;19953;-61
2022/11/25 06:20:12;;;;;;;;;;;21.90;99.90;;;;;;5113188;28;19914;-62
2022/11/25 06:22:38;;;;;;;;;;;21.90;99.90;;;;;;5113185;28;20282;-61
2022/11/25 06:25:05;;;;;;;;;;;21.90;99.90;;;;;;5112629;28;19918;-61
2022/11/25 06:27:32;;;;;;;;;;;21.80;99.90;;;;;;5112848;28;19999;-69
2022/11/25 06:29:59;;;;;;;;;;;21.80;99.90;;;;;;5112772;28;19908;-61
2022/11/25 06:32:26;;;;;;;;;;;21.80;99.90;;;;;;5112546;28;19918;-61
2022/11/25 06:34:52;;;;;;;;;;;21.80;99.90;;;;;;5112725;28;19919;-61
2022/11/25 06:37:19;;;;;;;;;;;21.80;99.90;;;;;;5112734;28;19931;-64
2022/11/25 06:39:46;;;;;;;;;;;21.80;99.90;;;;;;5112819;28;19915;-65
2022/11/25 06:42:13;;;;;;;;;;;21.70;99.90;;;;;;5112693;28;19915;-68
2022/11/25 06:44:39;;;;;;;;;;;21.70;99.90;;;;;;5112088;28;19990;-62
2022/11/25 06:47:06;;;;;;;;;;;21.60;99.90;;;;;;5112571;28;19908;-63
2022/11/25 06:49:33;;;;;;;;;;;21.70;99.90;;;;;;5112599;28;20481;-63
2022/11/25 06:51:59;;;;;;;;;;;21.60;99.90;;;;;;5112483;28;19907;-61
2022/11/25 06:54:26;;;;;;;;;;;21.50;99.90;;;;;;5112305;28;19912;-61
2022/11/25 06:56:53;;;;;;;;;;;21.50;99.90;;;;;;5111162;28;19923;-61
2022/11/25 06:59:20;;;;;;;;;;;21.50;99.90;;;;;;5112417;28;20048;-61
2022/11/25 07:01:47;;;;;;;;;;;21.40;99.90;;;;;;5112198;28;19920;-61
2022/11/25 07:04:14;;;;;;;;;;;21.40;99.90;;;;;;5112320;28;20316;-64
2022/11/25 07:06:40;;;;;;;;;;;21.50;99.90;;;;;;5112440;28;20428;-63
2022/11/25 07:09:07;;;;;;;;;;;21.40;99.90;;;;;;5111895;28;19907;-61
2022/11/25 07:11:36;;;;;;;;;;;21.30;99.90;;;;;;5111752;28;19915;-62
2022/11/25 07:14:04;;;;;;;;;;;21.20;99.90;;;;;;5111984;28;19914;-60
2022/11/25 07:16:31;;;;;;;;;;;21.30;99.90;;;;;;5112109;28;19919;-61
2022/11/25 07:19:00;;;;;;;;;;;21.50;99.90;;;;;;5112015;28;19934;-64
2022/11/25 07:21:29;;;;;;;;;;;21.50;99.90;;;;;;5111869;28;19923;-63
2022/11/25 07:23:57;;;;;;;;;;;21.30;99.90;;;;;;5111748;28;19907;-61
2022/11/25 07:26:25;;;;;;;;;;;21.30;99.90;;;;;;5111978;28;19908;-64
2022/11/25 07:28:52;;;;;;;;;;;21.20;99.90;;;;;;5111815;28;19919;-61
2022/11/25 07:31:21;;;;;;;;;;;21.20;99.90;;;;;;5111985;28;19961;-67
2022/11/25 07:33:50;;;;;;;;;;;21.10;99.90;;;;;;5112057;28;19908;-61
2022/11/25 07:36:17;;;;;;;;;;;21.00;99.90;;;;;;5111474;28;20407;-64
2022/11/25 07:38:43;;;;;;;;;;;20.90;99.90;;;;;;5111592;28;19943;-66
2022/11/25 07:41:12;;;;;;;;;;;20.90;99.90;;;;;;5111541;28;19916;-64
2022/11/25 07:43:38;;;;;;;;;;;20.90;99.90;;;;;;5111655;28;20523;-66
2022/11/25 07:46:16;;;;;;;;;;;21.00;99.90;;;;;;5111718;28;20351;-67
2022/11/25 07:48:43;;;;;;;;;;;20.90;99.90;;;;;;5111327;28;20346;-67
2022/11/25 07:51:16;;;;;;;;;;;20.80;99.90;;;;;;5111510;28;19934;-66
2022/11/25 07:53:43;;;;;;;;;;;21.00;99.90;;;;;;5111422;28;20026;-65
2022/11/25 07:56:10;;;;;;;;;;;21.20;99.90;;;;;;5111515;28;19920;-67
2022/11/25 07:58:37;;;;;;;;;;;21.20;99.90;;;;;;5111768;28;20358;-62
2022/11/25 08:01:04;;;;;;;;;;;21.00;99.90;;;;;;5111229;28;19912;-65
2022/11/25 08:03:32;;;;;;;;;;;21.00;99.90;;;;;;5111218;28;19912;-61
2022/11/25 08:06:00;;;;;;;;;;;20.90;99.90;;;;;;5111223;28;19990;-62
2022/11/25 08:08:27;;;;;;;;;;;20.80;99.90;;;;;;5094820;28;19968;-61
2022/11/25 08:10:53;;;;;;;;;;;20.80;99.90;;;;;;5116699;28;19908;-62
2022/11/25 08:13:20;;;;;;;;;;;20.80;99.90;;;;;;5117835;28;19908;-62
2022/11/25 08:15:47;;;;;;;;;;;20.80;99.90;;;;;;5117586;28;19908;-61
2022/11/25 08:18:14;;;;;;;;;;;20.70;99.90;;;;;;5117656;28;20354;-61
2022/11/25 08:20:40;;;;;;;;;;;20.70;99.90;;;;;;5117442;28;20277;-62
2022/11/25 08:23:07;;;;;;;;;;;20.70;99.90;;;;;;5117384;28;20358;-63
2022/11/25 08:25:38;;;;;;;;;;;20.70;99.90;;;;;;5117382;28;19908;-60
2022/11/25 08:28:05;;;;;;;;;;;20.70;99.90;;;;;;5117391;28;20366;-61
2022/11/25 08:30:32;;;;;;;;;;;20.70;99.90;;;;;;5117335;28;19957;-61
2022/11/25 08:32:58;;;;;;;;;;;20.70;99.90;;;;;;5117093;28;20269;-61
2022/11/25 08:35:25;;;;;;;;;;;20.70;99.90;;;;;;5117230;28;20011;-61
2022/11/25 08:37:54;;;;;;;;;;;20.60;99.90;;;;;;5116963;28;19939;-60
2022/11/25 08:40:20;;;;;;;;;;;20.60;99.90;;;;;;5116946;28;19912;-61
2022/11/25 08:42:47;;;;;;;;;;;20.50;99.90;;;;;;5117057;28;20372;-61
2022/11/25 08:45:14;;;;;;;;;;;20.50;99.90;;;;;;5117296;28;19907;-61
2022/11/25 08:47:40;;;;;;;;;;;20.50;99.90;;;;;;5117032;28;19930;-62
2022/11/25 08:50:08;;;;;;;;;;;20.50;99.90;;;;;;5116969;28;19908;-64
2022/11/25 08:52:35;;;;;;;;;;;20.50;99.90;;;;;;5116710;28;20395;-61
2022/11/25 08:55:02;;;;;;;;;;;20.60;99.90;;;;;;5116685;28;19907;-61
2022/11/25 08:57:29;;;;;;;;;;;20.60;99.90;;;;;;5116906;28;19934;-61
2022/11/25 08:59:56;;;;;;;;;;;20.60;99.90;;;;;;5116889;28;19915;-60
2022/11/25 09:02:23;;;;;;;;;;;20.60;99.90;;;;;;5116639;28;19919;-62
2022/11/25 09:04:50;;;;;;;;;;;20.70;99.90;;;;;;5116579;28;19907;-62
2022/11/25 09:07:17;;;;;;;;;;;20.70;99.90;;;;;;5116693;28;19915;-61
2022/11/25 09:09:43;;;;;;;;;;;20.70;99.90;;;;;;5116615;28;20389;-62
2022/11/25 09:12:10;;;;;;;;;;;20.60;99.90;;;;;;5116498;28;19947;-61
2022/11/25 09:14:39;;;;;;;;;;;20.60;99.90;;;;;;5116533;28;19914;-63
2022/11/25 09:17:09;;;;;;;;;;;20.60;99.90;;;;;;5116266;28;19918;-64
2022/11/25 09:19:36;;;;;;;;;;;20.60;99.90;;;;;;5115819;28;19914;-63
2022/11/25 09:22:03;;;;;;;;;;;20.60;99.90;;;;;;5116209;28;19961;-64
2022/11/25 09:24:30;;;;;;;;;;;20.50;99.90;;;;;;5116352;28;20323;-65
2022/11/25 09:26:56;;;;;;;;;;;20.50;99.90;;;;;;5116059;28;19954;-63
2022/11/25 09:29:24;;;;;;;;;;;20.50;99.90;;;;;;5116196;28;19908;-61
2022/11/25 09:31:50;;;;;;;;;;;20.50;99.90;;;;;;5116235;28;19908;-64
2022/11/25 09:34:17;;;;;;;;;;;20.50;99.90;;;;;;5116277;28;19953;-64
2022/11/25 09:36:44;;;;;;;;;;;20.60;99.90;;;;;;5116103;28;20003;-61
2022/11/25 09:39:11;;;;;;;;;;;20.50;99.90;;;;;;5097724;28;20020;-63
2022/11/25 09:47:50;;;;;;;;;;;20.50;99.90;;;;;;5116407;28;19931;-61
2022/11/25 09:50:22;;;;;;;;;;;20.50;99.90;;;;;;5115982;28;19908;-60
2022/11/25 09:53:07;;;;;;;;;;;20.50;99.90;;;;;;5115753;28;20242;-60
2022/11/25 09:55:38;;;;;;;;;;;20.50;99.90;;;;;;5115678;28;19919;-62
2022/11/25 09:58:13;;;;;;;;;;;20.50;99.90;;;;;;5115864;28;19950;-61
2022/11/25 10:00:41;;;;;;;;;;;20.40;99.90;;;;;;5115677;28;19920;-60
2022/11/25 10:03:46;;;;;;;;;;;20.40;99.90;;;;;;5115413;28;19960;-60
2022/11/25 10:06:20;;;;;;;;;;;20.30;99.90;;;;;;5052893;28;20014;-60
2022/11/25 10:09:12;;;;;;;;;;;20.30;99.90;;;;;;5052565;28;19916;-61
2022/11/25 10:11:45;;;;;;;;;;;20.30;99.90;;;;;;5095145;28;20002;-61
2022/11/25 10:14:32;;;;;;;;;;;20.20;99.90;;;;;;5115428;28;19908;-61
2022/11/25 10:17:09;;;;;;;;;;;20.20;99.90;;;;;;5104159;28;19907;-61
2022/11/25 10:19:46;;;;;;;;;;;20.20;99.90;;;;;;5115240;28;19908;-61
2022/11/25 10:22:23;;;;;;;;;;;20.20;99.90;;;;;;5115184;28;20330;-62
2022/11/25 10:24:51;;;;;;;;;;;20.20;99.90;;;;;;5115043;28;19907;-66
2022/11/25 10:27:21;;;;;;;;;;;20.20;99.90;;;;;;5115361;28;19961;-62
2022/11/25 10:29:54;;;;;;;;;;;20.10;99.90;;;;;;5114923;28;20359;-62
2022/11/25 10:32:24;;;;;;;;;;;20.20;99.90;;;;;;5114341;28;19907;-61
2022/11/25 10:34:59;;;;;;;;;;;20.10;99.90;;;;;;5114919;28;19912;-67
2022/11/25 10:37:28;;;;;;;;;;;20.10;99.90;;;;;;5114865;28;19955;-67
2022/11/25 10:39:55;;;;;;;;;;;20.10;99.90;;;;;;5114914;28;19961;-68
2022/11/25 10:42:23;;;;;;;;;;;20.10;99.90;;;;;;5096518;28;20285;-65
2022/11/25 10:44:50;;;;;;;;;;;20.10;99.90;;;;;;5114597;28;19943;-69
2022/11/25 10:47:28;;;;;;;;;;;20.10;99.90;;;;;;5114815;28;19931;-67
2022/11/25 10:50:10;;;;;;;;;;;20.00;99.90;;;;;;5114895;28;19915;-66
2022/11/25 10:52:40;;;;;;;;;;;20.00;99.90;;;;;;5114518;28;19908;-66
2022/11/25 10:55:09;;;;;;;;;;;20.00;99.90;;;;;;5114276;28;20318;-70
2022/11/25 10:57:36;;;;;;;;;;;20.00;99.90;;;;;;5114637;28;19967;-64
2022/11/25 11:00:04;;;;;;;;;;;20.00;99.90;;;;;;5114607;28;19944;-70
2022/11/25 11:02:40;;;;;;;;;;;19.90;99.90;;;;;;5114509;28;19919;-70
2022/11/25 11:05:09;;;;;;;;;;;19.90;99.90;;;;;;5114351;28;19966;-68
2022/11/25 11:07:38;;;;;;;;;;;19.90;99.90;;;;;;5114407;28;19908;-66
2022/11/25 11:10:14;;;;;;;;;;;19.90;99.90;;;;;;5114405;28;19915;-60
2022/11/25 11:12:55;;;;;;;;;;;19.90;99.90;;;;;;5114342;28;19908;-61
2022/11/25 11:15:29;;;;;;;;;;;19.90;99.90;;;;;;5114363;28;20433;-61
2022/11/25 11:17:57;;;;;;;;;;;19.90;99.90;;;;;;5114275;28;20385;-60
2022/11/25 11:20:25;;;;;;;;;;;19.90;99.90;;;;;;5114289;28;20350;-59
2022/11/25 11:22:57;;;;;;;;;;;19.90;99.90;;;;;;5113840;28;19916;-60
2022/11/25 11:25:29;;;;;;;;;;;19.90;99.90;;;;;;5114079;28;20254;-60
2022/11/25 11:27:56;;;;;;;;;;;19.80;99.90;;;;;;5114158;28;19908;-60
2022/11/25 11:30:24;;;;;;;;;;;19.80;99.90;;;;;;5114044;28;19915;-60
2022/11/25 11:33:17;;;;;;;;;;;19.80;99.90;;;;;;5113867;28;19912;-60
2022/11/25 11:35:43;;;;;;;;;;;19.80;99.90;;;;;;5096848;28;19908;-60
2022/11/25 11:38:24;;;;;;;;;;;19.80;99.90;;;;;;5113802;28;19915;-60
2022/11/25 11:40:53;;;;;;;;;;;19.80;99.90;;;;;;5113581;28;20002;-63
2022/11/25 11:43:20;;;;;;;;;;;19.90;99.90;;;;;;5113719;28;19915;-60
2022/11/25 11:46:03;;;;;;;;;;;19.80;99.90;;;;;;5113777;28;19942;-62
2022/11/25 11:48:40;;;;;;;;;;;19.90;99.90;;;;;;5113778;28;19998;-66
2022/11/25 11:51:13;;;;;;;;;;;20.00;99.90;;;;;;5113475;28;19908;-63
2022/11/25 11:53:40;;;;;;;;;;;20.00;99.90;;;;;;5113645;28;20346;-62
2022/11/25 11:56:09;;;;;;;;;;;20.00;99.90;;;;;;5113538;28;20393;-63
2022/11/25 11:58:36;;;;;;;;;;;20.00;99.90;;;;;;5113478;28;19908;-64
2022/11/25 12:01:15;;;;;;;;;;;20.00;99.90;;;;;;5113331;28;19920;-63
2022/11/25 12:03:50;;;;;;;;;;;20.00;99.90;;;;;;5113643;28;20351;-64
2022/11/25 12:06:17;;;;;;;;;;;20.00;99.90;;;;;;5113595;28;20460;-62
2022/11/25 12:08:55;;;;;;;;;;;20.00;99.90;;;;;;5113579;28;19908;-64
2022/11/25 12:11:27;;;;;;;;;;;20.00;99.90;;;;;;5113587;28;20308;-66
2022/11/25 12:14:20;;;;;;;;;;;20.00;99.90;;;;;;5113509;28;19908;-64
2022/11/25 12:16:52;;;;;;;;;;;20.00;99.90;;;;;;5089525;28;19908;-62
2022/11/25 12:19:21;;;;;;;;;;;20.00;99.90;;;;;;5113672;28;20393;-63
2022/11/25 12:22:04;;;;;;;;;;;20.00;99.90;;;;;;5113188;28;19916;-63
2022/11/25 12:24:31;;;;;;;;;;;20.00;99.90;;;;;;5113439;28;19916;-64
2022/11/25 12:27:16;;;;;;;;;;;20.00;99.90;;;;;;5113210;28;19908;-63
2022/11/25 12:29:48;;;;;;;;;;;20.00;99.90;;;;;;5113373;28;19930;-63
2022/11/25 12:32:24;;;;;;;;;;;20.00;99.90;;;;;;5113490;28;19908;-64
2022/11/25 12:34:56;;;;;;;;;;;20.00;99.90;;;;;;5113152;28;19927;-61
2022/11/25 12:37:35;;;;;;;;;;;19.90;99.90;;;;;;5113232;28;19908;-62
2022/11/25 12:40:07;;;;;;;;;;;19.90;99.90;;;;;;5113590;28;19919;-61
2022/11/25 12:42:36;;;;;;;;;;;19.90;99.90;;;;;;5113354;28;20002;-60
2022/11/25 12:45:16;;;;;;;;;;;19.90;99.90;;;;;;5113041;28;19908;-61
2022/11/25 12:47:44;;;;;;;;;;;19.90;99.90;;;;;;5113330;28;19965;-61
2022/11/25 12:50:33;;;;;;;;;;;19.90;99.90;;;;;;5113373;28;20080;-60
2022/11/25 12:53:14;;;;;;;;;;;19.90;99.90;;;;;;5112141;28;20288;-61
2022/11/25 12:55:41;;;;;;;;;;;19.90;99.90;;;;;;5116345;28;20324;-62
2022/11/25 12:58:30;;;;;;;;;;;19.90;99.90;;;;;;5117218;28;19911;-59
2022/11/25 13:01:20;;;;;;;;;;;19.90;99.90;;;;;;5116607;28;19912;-61
2022/11/25 13:04:07;;;;;;;;;;;19.80;99.90;;;;;;5116968;28;19908;-60
2022/11/25 13:06:54;;;;;;;;;;;19.80;99.90;;;;;;5116565;28;19912;-60
2022/11/25 13:09:33;;;;;;;;;;;19.80;99.90;;;;;;5116836;28;19915;-62
2022/11/25 13:12:17;;;;;;;;;;;19.80;99.90;;;;;;5116662;28;19921;-68
2022/11/25 13:15:01;;;;;;;;;;;19.80;99.90;;;;;;5116700;28;19912;-63
2022/11/25 13:17:28;;;;;;;;;;;19.80;99.90;;;;;;5116569;28;19915;-64
2022/11/25 13:20:13;;;;;;;;;;;19.80;99.90;;;;;;5116585;28;20346;-65
2022/11/25 13:22:40;;;;;;;;;;;19.80;99.90;;;;;;5116261;28;19915;-64
2022/11/25 13:25:21;;;;;;;;;;;19.80;99.90;;;;;;5116182;28;20021;-64
2022/11/25 13:27:48;;;;;;;;;;;19.80;99.90;;;;;;5116621;28;20015;-64
2022/11/25 13:30:33;;;;;;;;;;;19.80;99.90;;;;;;5116362;28;19907;-67
2022/11/25 13:33:11;;;;;;;;;;;19.70;99.90;;;;;;5116073;28;19973;-63
2022/11/25 13:35:45;;;;;;;;;;;19.60;99.90;;;;;;5116154;28;20373;-67
2022/11/25 13:38:37;;;;;;;;;;;19.50;99.90;;;;;;5116226;28;19912;-62
2022/11/25 13:41:10;;;;;;;;;;;19.50;99.90;;;;;;5112915;28;20340;-64
2022/11/25 13:43:51;;;;;;;;;;;19.50;99.90;;;;;;5116098;28;19908;-63
2022/11/25 13:46:35;;;;;;;;;;;19.50;99.90;;;;;;5116055;28;20274;-63
2022/11/25 13:49:04;;;;;;;;;;;19.50;99.90;;;;;;5115856;28;19908;-64
2022/11/25 13:51:31;;;;;;;;;;;19.50;99.90;;;;;;5115776;28;19908;-65
2022/11/25 13:54:00;;;;;;;;;;;19.50;99.90;;;;;;5115844;28;19915;-67
2022/11/25 13:56:29;;;;;;;;;;;19.50;99.90;;;;;;5115784;28;19920;-61
2022/11/25 13:59:12;;;;;;;;;;;19.50;99.90;;;;;;5115550;28;19995;-60
2022/11/25 14:01:40;;;;;;;;;;;19.50;99.90;;;;;;5115823;28;19916;-62
2022/11/25 14:04:08;;;;;;;;;;;19.50;99.90;;;;;;5115791;28;19908;-63
2022/11/25 14:06:49;;;;;;;;;;;19.40;99.90;;;;;;5115538;28;19961;-61
2022/11/25 14:09:30;;;;;;;;;;;19.30;99.90;;;;;;5115646;28;19934;-62
2022/11/25 14:12:03;;;;;;;;;;;19.30;99.90;;;;;;5115470;28;19918;-61
2022/11/25 14:14:35;;;;;;;;;;;19.20;99.90;;;;;;5115642;28;19908;-61
2022/11/25 14:17:20;;;;;;;;;;;19.20;99.90;;;;;;5115182;28;20305;-61
2022/11/25 14:20:05;;;;;;;;;;;19.20;99.90;;;;;;5115464;28;19908;-62
2022/11/25 14:22:31;;;;;;;;;;;19.20;99.90;;;;;;5115127;28;20373;-66
2022/11/25 14:25:21;;;;;;;;;;;19.20;99.90;;;;;;5115123;28;19912;-65
2022/11/25 14:27:51;;;;;;;;;;;19.20;99.90;;;;;;5107078;28;19914;-64
2022/11/25 14:30:18;;;;;;;;;;;19.30;99.90;;;;;;5115159;28;20003;-66
2022/11/25 14:32:54;;;;;;;;;;;19.20;99.90;;;;;;5115292;28;20438;-65
2022/11/25 14:35:32;;;;;;;;;;;19.30;99.90;;;;;;5115037;28;19911;-67
2022/11/25 14:38:11;;;;;;;;;;;19.40;99.90;;;;;;5115069;28;19912;-64
2022/11/25 14:40:46;;;;;;;;;;;19.40;99.90;;;;;;5114980;28;19964;-67
2022/11/25 14:43:23;;;;;;;;;;;19.40;99.90;;;;;;5114838;28;19911;-64
2022/11/25 14:46:08;;;;;;;;;;;19.40;99.90;;;;;;5114864;28;19930;-66
2022/11/25 14:48:34;;;;;;;;;;;19.30;99.90;;;;;;5114920;28;19908;-65
2022/11/25 14:51:12;;;;;;;;;;;19.30;99.90;;;;;;5114477;28;19957;-69